sensor_id;sensor_type;location;lat;lon;timestamp;temperature;humidity
28524;DHT22;15734;50.904;6.922;2023-08-12T00:01:33;20.90;99.90
28524;DHT22;15734;50.904;6.922;2023-08-12T00:03:59;20.90;99.90
28524;DHT22;15734;50.904;6.922;2023-08-12T00:06:24;20.90;99.90
28524;DHT22;15734;50.904;6.922;2023-08-12T00:08:50;20.90;99.90
28524;DHT22;15734;50.904;6.922;2023-08-12T00:11:15;20.90;99.90
28524;DHT22;15734;50.904;6.922;2023-08-12T00:13:41;20.90;99.90
28524;DHT22;15734;50.904;6.922;2023-08-12T00:16:06;20.90;99.90
28524;DHT22;15734;50.904;6.922;2023-08-12T00:18:32;20.90;99.90
28524;DHT22;15734;50.904;6.922;2023-08-12T00:21:07;20.90;99.90
28524;DHT22;15734;50.904;6.922;2023-08-12T00:23:38;20.90;99.90
28524;DHT22;15734;50.904;6.922;2023-08-12T00:26:05;20.90;99.90
28524;DHT22;15734;50.904;6.922;2023-08-12T00:28:31;20.90;99.90
28524;DHT22;15734;50.904;6.922;2023-08-12T00:30:57;20.90;99.90
28524;DHT22;15734;50.904;6.922;2023-08-12T00:33:22;20.90;99.90
28524;DHT22;15734;50.904;6.922;2023-08-12T00:35:48;20.90;99.90
28524;DHT22;15734;50.904;6.922;2023-08-12T00:38:13;20.90;99.90
28524;DHT22;15734;50.904;6.922;2023-08-12T00:40:39;20.90;99.90
28524;DHT22;15734;50.904;6.922;2023-08-12T00:43:04;20.90;99.90
28524;DHT22;15734;50.904;6.922;2023-08-12T00:45:30;20.90;99.90
28524;DHT22;15734;50.904;6.922;2023-08-12T00:47:55;20.90;99.90
28524;DHT22;15734;50.904;6.922;2023-08-12T00:50:21;20.90;99.90
28524;DHT22;15734;50.904;6.922;2023-08-12T00:52:48;20.90;99.90
28524;DHT22;15734;50.904;6.922;2023-08-12T00:55:15;20.80;99.90
28524;DHT22;15734;50.904;6.922;2023-08-12T00:57:40;20.90;99.90
28524;DHT22;15734;50.904;6.922;2023-08-12T01:00:06;20.90;99.90
28524;DHT22;15734;50.904;6.922;2023-08-12T01:02:33;20.80;99.90
28524;DHT22;15734;50.904;6.922;2023-08-12T01:04:59;20.80;99.90
28524;DHT22;15734;50.904;6.922;2023-08-12T01:07:24;20.90;99.90
28524;DHT22;15734;50.904;6.922;2023-08-12T01:09:50;20.80;99.90
28524;DHT22;15734;50.904;6.922;2023-08-12T01:12:26;20.90;99.90
28524;DHT22;15734;50.904;6.922;2023-08-12T01:15:07;20.90;99.90
28524;DHT22;15734;50.904;6.922;2023-08-12T01:17:36;20.90;99.90
28524;DHT22;15734;50.904;6.922;2023-08-12T01:20:03;20.90;99.90
28524;DHT22;15734;50.904;6.922;2023-08-12T01:22:38;20.80;99.90
28524;DHT22;15734;50.904;6.922;2023-08-12T01:25:07;20.80;99.90
28524;DHT22;15734;50.904;6.922;2023-08-12T01:27:35;20.80;99.90
28524;DHT22;15734;50.904;6.922;2023-08-12T01:30:01;20.80;99.90
28524;DHT22;15734;50.904;6.922;2023-08-12T01:35:17;20.80;99.90
28524;DHT22;15734;50.904;6.922;2023-08-12T01:37:45;20.80;99.90
28524;DHT22;15734;50.904;6.922;2023-08-12T01:40:11;20.80;99.90
28524;DHT22;15734;50.904;6.922;2023-08-12T01:42:39;20.80;99.90
28524;DHT22;15734;50.904;6.922;2023-08-12T01:45:06;20.70;99.90
28524;DHT22;15734;50.904;6.922;2023-08-12T01:47:31;20.70;99.90
28524;DHT22;15734;50.904;6.922;2023-08-12T01:50:00;20.70;99.90
28524;DHT22;15734;50.904;6.922;2023-08-12T01:52:25;20.70;99.90
28524;DHT22;15734;50.904;6.922;2023-08-12T01:54:51;20.70;99.90
28524;DHT22;15734;50.904;6.922;2023-08-12T01:57:17;20.70;99.90
28524;DHT22;15734;50.904;6.922;2023-08-12T01:59:42;20.70;99.90
28524;DHT22;15734;50.904;6.922;2023-08-12T02:02:09;20.70;99.90
28524;DHT22;15734;50.904;6.922;2023-08-12T02:04:35;20.70;99.90
28524;DHT22;15734;50.904;6.922;2023-08-12T02:07:02;20.70;99.90
28524;DHT22;15734;50.904;6.922;2023-08-12T02:09:28;20.70;99.90
28524;DHT22;15734;50.904;6.922;2023-08-12T02:11:53;20.70;99.90
28524;DHT22;15734;50.904;6.922;2023-08-12T02:14:19;20.70;99.90
28524;DHT22;15734;50.904;6.922;2023-08-12T02:16:44;20.70;99.90
28524;DHT22;15734;50.904;6.922;2023-08-12T02:19:10;20.70;99.90
28524;DHT22;15734;50.904;6.922;2023-08-12T02:21:35;20.70;99.90
28524;DHT22;15734;50.904;6.922;2023-08-12T02:24:01;20.70;99.90
28524;DHT22;15734;50.904;6.922;2023-08-12T02:26:26;20.70;99.90
28524;DHT22;15734;50.904;6.922;2023-08-12T02:28:52;20.70;99.90
28524;DHT22;15734;50.904;6.922;2023-08-12T02:31:17;20.70;99.90
28524;DHT22;15734;50.904;6.922;2023-08-12T02:33:43;20.70;99.90
28524;DHT22;15734;50.904;6.922;2023-08-12T02:36:09;20.70;99.90
28524;DHT22;15734;50.904;6.922;2023-08-12T02:38:34;20.70;99.90
28524;DHT22;15734;50.904;6.922;2023-08-12T02:41:00;20.70;99.90
28524;DHT22;15734;50.904;6.922;2023-08-12T02:43:25;20.70;99.90
28524;DHT22;15734;50.904;6.922;2023-08-12T02:45:51;20.70;99.90
28524;DHT22;15734;50.904;6.922;2023-08-12T02:48:17;20.70;99.90
28524;DHT22;15734;50.904;6.922;2023-08-12T02:50:42;20.70;99.90
28524;DHT22;15734;50.904;6.922;2023-08-12T02:53:08;20.70;99.90
28524;DHT22;15734;50.904;6.922;2023-08-12T02:55:34;20.70;99.90
28524;DHT22;15734;50.904;6.922;2023-08-12T02:58:00;20.70;99.90
28524;DHT22;15734;50.904;6.922;2023-08-12T03:00:26;20.70;99.90
28524;DHT22;15734;50.904;6.922;2023-08-12T03:02:52;20.70;99.90
28524;DHT22;15734;50.904;6.922;2023-08-12T03:05:18;20.80;99.90
28524;DHT22;15734;50.904;6.922;2023-08-12T03:07:44;20.70;99.90
28524;DHT22;15734;50.904;6.922;2023-08-12T03:10:10;20.70;99.90
28524;DHT22;15734;50.904;6.922;2023-08-12T03:12:35;20.70;99.90
28524;DHT22;15734;50.904;6.922;2023-08-12T03:15:02;20.80;99.90
28524;DHT22;15734;50.904;6.922;2023-08-12T03:17:28;20.80;99.90
28524;DHT22;15734;50.904;6.922;2023-08-12T03:19:53;20.80;99.90
28524;DHT22;15734;50.904;6.922;2023-08-12T03:22:22;20.80;99.90
28524;DHT22;15734;50.904;6.922;2023-08-12T03:24:48;20.70;99.90
28524;DHT22;15734;50.904;6.922;2023-08-12T03:27:13;20.70;99.90
28524;DHT22;15734;50.904;6.922;2023-08-12T03:29:39;20.70;99.90
28524;DHT22;15734;50.904;6.922;2023-08-12T03:32:04;20.70;99.90
28524;DHT22;15734;50.904;6.922;2023-08-12T03:34:30;20.70;99.90
28524;DHT22;15734;50.904;6.922;2023-08-12T03:36:56;20.70;99.90
28524;DHT22;15734;50.904;6.922;2023-08-12T03:39:21;20.60;99.90
28524;DHT22;15734;50.904;6.922;2023-08-12T03:41:47;20.70;99.90
28524;DHT22;15734;50.904;6.922;2023-08-12T03:44:12;20.60;99.90
28524;DHT22;15734;50.904;6.922;2023-08-12T03:46:38;20.60;99.90
28524;DHT22;15734;50.904;6.922;2023-08-12T03:49:03;20.60;99.90
28524;DHT22;15734;50.904;6.922;2023-08-12T03:51:29;20.60;99.90
28524;DHT22;15734;50.904;6.922;2023-08-12T03:53:54;20.50;99.90
28524;DHT22;15734;50.904;6.922;2023-08-12T03:56:20;20.50;99.90
28524;DHT22;15734;50.904;6.922;2023-08-12T03:58:45;20.50;99.90
28524;DHT22;15734;50.904;6.922;2023-08-12T04:01:11;20.50;99.90
28524;DHT22;15734;50.904;6.922;2023-08-12T04:03:36;20.40;99.90
28524;DHT22;15734;50.904;6.922;2023-08-12T04:06:02;20.30;99.90
28524;DHT22;15734;50.904;6.922;2023-08-12T04:08:28;20.30;99.90
28524;DHT22;15734;50.904;6.922;2023-08-12T04:10:54;20.30;99.90
28524;DHT22;15734;50.904;6.922;2023-08-12T04:13:20;20.20;99.90
28524;DHT22;15734;50.904;6.922;2023-08-12T04:15:49;20.20;99.90
28524;DHT22;15734;50.904;6.922;2023-08-12T04:18:15;20.20;99.90
28524;DHT22;15734;50.904;6.922;2023-08-12T04:20:41;20.20;99.90
28524;DHT22;15734;50.904;6.922;2023-08-12T04:23:06;20.10;99.90
28524;DHT22;15734;50.904;6.922;2023-08-12T04:25:32;20.10;99.90
28524;DHT22;15734;50.904;6.922;2023-08-12T04:27:58;20.10;99.90
28524;DHT22;15734;50.904;6.922;2023-08-12T04:30:23;20.10;99.90
28524;DHT22;15734;50.904;6.922;2023-08-12T04:32:49;20.10;99.90
28524;DHT22;15734;50.904;6.922;2023-08-12T04:35:15;20.10;99.90
28524;DHT22;15734;50.904;6.922;2023-08-12T04:37:40;20.10;99.90
28524;DHT22;15734;50.904;6.922;2023-08-12T04:40:06;20.10;99.90
28524;DHT22;15734;50.904;6.922;2023-08-12T04:42:36;20.10;99.90
28524;DHT22;15734;50.904;6.922;2023-08-12T04:45:02;20.10;99.90
28524;DHT22;15734;50.904;6.922;2023-08-12T04:47:28;20.10;99.90
28524;DHT22;15734;50.904;6.922;2023-08-12T04:49:54;20.20;99.90
28524;DHT22;15734;50.904;6.922;2023-08-12T04:52:20;20.20;99.90
28524;DHT22;15734;50.904;6.922;2023-08-12T04:54:46;20.20;99.90
28524;DHT22;15734;50.904;6.922;2023-08-12T04:57:12;20.20;99.90
28524;DHT22;15734;50.904;6.922;2023-08-12T04:59:37;20.30;99.90
28524;DHT22;15734;50.904;6.922;2023-08-12T05:02:03;20.30;99.90
28524;DHT22;15734;50.904;6.922;2023-08-12T05:04:28;20.40;99.90
28524;DHT22;15734;50.904;6.922;2023-08-12T05:06:54;20.40;99.90
28524;DHT22;15734;50.904;6.922;2023-08-12T05:09:19;20.40;99.90
28524;DHT22;15734;50.904;6.922;2023-08-12T05:11:45;20.40;99.90
28524;DHT22;15734;50.904;6.922;2023-08-12T05:14:10;20.50;99.90
28524;DHT22;15734;50.904;6.922;2023-08-12T05:16:36;20.50;99.90
28524;DHT22;15734;50.904;6.922;2023-08-12T05:19:01;20.50;99.90
28524;DHT22;15734;50.904;6.922;2023-08-12T05:21:27;20.50;99.90
28524;DHT22;15734;50.904;6.922;2023-08-12T05:23:52;20.50;99.90
28524;DHT22;15734;50.904;6.922;2023-08-12T05:26:19;20.60;99.90
28524;DHT22;15734;50.904;6.922;2023-08-12T05:28:46;20.60;99.90
28524;DHT22;15734;50.904;6.922;2023-08-12T05:31:11;20.60;99.90
28524;DHT22;15734;50.904;6.922;2023-08-12T05:33:37;20.70;99.90
28524;DHT22;15734;50.904;6.922;2023-08-12T05:36:03;20.70;99.90
28524;DHT22;15734;50.904;6.922;2023-08-12T05:38:29;20.70;99.90
28524;DHT22;15734;50.904;6.922;2023-08-12T05:40:54;20.70;99.90
28524;DHT22;15734;50.904;6.922;2023-08-12T05:43:20;20.70;99.90
28524;DHT22;15734;50.904;6.922;2023-08-12T05:45:46;20.70;99.90
28524;DHT22;15734;50.904;6.922;2023-08-12T05:48:11;20.70;99.90
28524;DHT22;15734;50.904;6.922;2023-08-12T05:50:37;20.70;99.90
28524;DHT22;15734;50.904;6.922;2023-08-12T05:53:02;20.70;99.90
28524;DHT22;15734;50.904;6.922;2023-08-12T05:55:28;20.70;99.90
28524;DHT22;15734;50.904;6.922;2023-08-12T05:57:53;20.70;99.90
28524;DHT22;15734;50.904;6.922;2023-08-12T06:00:19;20.60;99.90
28524;DHT22;15734;50.904;6.922;2023-08-12T06:02:44;20.60;99.90
28524;DHT22;15734;50.904;6.922;2023-08-12T06:05:10;20.60;99.90
28524;DHT22;15734;50.904;6.922;2023-08-12T06:07:35;20.70;99.90
28524;DHT22;15734;50.904;6.922;2023-08-12T06:10:02;20.70;99.90
28524;DHT22;15734;50.904;6.922;2023-08-12T06:12:27;20.70;99.90
28524;DHT22;15734;50.904;6.922;2023-08-12T06:14:53;20.60;99.90
28524;DHT22;15734;50.904;6.922;2023-08-12T06:17:18;20.70;99.90
28524;DHT22;15734;50.904;6.922;2023-08-12T06:19:44;20.60;99.90
28524;DHT22;15734;50.904;6.922;2023-08-12T06:22:09;20.60;99.90
28524;DHT22;15734;50.904;6.922;2023-08-12T06:24:35;20.60;99.90
28524;DHT22;15734;50.904;6.922;2023-08-12T06:27:01;20.60;99.90
28524;DHT22;15734;50.904;6.922;2023-08-12T06:29:26;20.50;99.90
28524;DHT22;15734;50.904;6.922;2023-08-12T06:31:53;20.40;99.90
28524;DHT22;15734;50.904;6.922;2023-08-12T06:34:18;20.40;99.90
28524;DHT22;15734;50.904;6.922;2023-08-12T06:36:44;20.30;99.90
28524;DHT22;15734;50.904;6.922;2023-08-12T06:39:09;20.30;99.90
28524;DHT22;15734;50.904;6.922;2023-08-12T06:41:35;20.30;99.90
28524;DHT22;15734;50.904;6.922;2023-08-12T06:44:01;20.30;99.90
28524;DHT22;15734;50.904;6.922;2023-08-12T06:46:26;20.40;99.90
28524;DHT22;15734;50.904;6.922;2023-08-12T06:48:52;20.40;99.90
28524;DHT22;15734;50.904;6.922;2023-08-12T06:51:17;20.50;99.90
28524;DHT22;15734;50.904;6.922;2023-08-12T06:53:43;20.50;99.90
28524;DHT22;15734;50.904;6.922;2023-08-12T06:56:08;20.50;99.90
28524;DHT22;15734;50.904;6.922;2023-08-12T06:58:34;20.50;99.90
28524;DHT22;15734;50.904;6.922;2023-08-12T07:00:59;20.50;99.90
28524;DHT22;15734;50.904;6.922;2023-08-12T07:03:25;20.50;99.90
28524;DHT22;15734;50.904;6.922;2023-08-12T07:05:53;20.50;99.90
28524;DHT22;15734;50.904;6.922;2023-08-12T07:08:18;20.50;99.90
28524;DHT22;15734;50.904;6.922;2023-08-12T07:10:45;20.50;99.90
28524;DHT22;15734;50.904;6.922;2023-08-12T07:13:10;20.60;99.90
28524;DHT22;15734;50.904;6.922;2023-08-12T07:15:36;20.50;99.90
28524;DHT22;15734;50.904;6.922;2023-08-12T07:18:01;20.50;99.90
28524;DHT22;15734;50.904;6.922;2023-08-12T07:20:28;20.50;99.90
28524;DHT22;15734;50.904;6.922;2023-08-12T07:22:53;20.30;99.90
28524;DHT22;15734;50.904;6.922;2023-08-12T07:25:19;20.30;99.90
28524;DHT22;15734;50.904;6.922;2023-08-12T07:27:44;20.40;99.90
28524;DHT22;15734;50.904;6.922;2023-08-12T07:30:10;20.40;99.90
28524;DHT22;15734;50.904;6.922;2023-08-12T07:32:37;20.50;99.90
28524;DHT22;15734;50.904;6.922;2023-08-12T07:35:03;20.40;99.90
28524;DHT22;15734;50.904;6.922;2023-08-12T07:37:30;20.40;99.90
28524;DHT22;15734;50.904;6.922;2023-08-12T07:39:56;20.40;99.90
28524;DHT22;15734;50.904;6.922;2023-08-12T07:42:21;20.50;99.90
28524;DHT22;15734;50.904;6.922;2023-08-12T07:44:46;20.60;99.90
28524;DHT22;15734;50.904;6.922;2023-08-12T07:47:12;20.70;99.90
28524;DHT22;15734;50.904;6.922;2023-08-12T07:49:38;20.80;99.90
28524;DHT22;15734;50.904;6.922;2023-08-12T07:52:04;20.90;99.90
28524;DHT22;15734;50.904;6.922;2023-08-12T07:54:29;21.10;99.90
28524;DHT22;15734;50.904;6.922;2023-08-12T07:56:55;21.20;99.90
28524;DHT22;15734;50.904;6.922;2023-08-12T07:59:20;21.20;99.90
28524;DHT22;15734;50.904;6.922;2023-08-12T08:01:46;21.20;99.90
28524;DHT22;15734;50.904;6.922;2023-08-12T08:04:12;21.30;99.90
28524;DHT22;15734;50.904;6.922;2023-08-12T08:06:38;21.30;99.90
28524;DHT22;15734;50.904;6.922;2023-08-12T08:09:03;21.30;99.90
28524;DHT22;15734;50.904;6.922;2023-08-12T08:11:30;21.30;99.90
28524;DHT22;15734;50.904;6.922;2023-08-12T08:13:57;21.40;99.90
28524;DHT22;15734;50.904;6.922;2023-08-12T08:16:22;21.30;99.90
28524;DHT22;15734;50.904;6.922;2023-08-12T08:18:48;21.30;99.90
28524;DHT22;15734;50.904;6.922;2023-08-12T08:21:13;21.40;99.90
28524;DHT22;15734;50.904;6.922;2023-08-12T08:23:41;21.40;99.90
28524;DHT22;15734;50.904;6.922;2023-08-12T08:26:07;21.40;99.90
28524;DHT22;15734;50.904;6.922;2023-08-12T08:28:32;21.40;99.90
28524;DHT22;15734;50.904;6.922;2023-08-12T08:30:58;21.50;99.90
28524;DHT22;15734;50.904;6.922;2023-08-12T08:33:25;21.50;99.90
28524;DHT22;15734;50.904;6.922;2023-08-12T08:35:50;21.60;99.90
28524;DHT22;15734;50.904;6.922;2023-08-12T08:38:16;21.60;99.90
28524;DHT22;15734;50.904;6.922;2023-08-12T08:40:42;21.50;99.90
28524;DHT22;15734;50.904;6.922;2023-08-12T08:43:08;21.40;99.90
28524;DHT22;15734;50.904;6.922;2023-08-12T08:45:34;21.50;99.90
28524;DHT22;15734;50.904;6.922;2023-08-12T08:48:01;21.40;99.90
28524;DHT22;15734;50.904;6.922;2023-08-12T08:50:30;21.50;99.90
28524;DHT22;15734;50.904;6.922;2023-08-12T08:52:57;21.60;99.90
28524;DHT22;15734;50.904;6.922;2023-08-12T08:55:23;21.70;99.90
28524;DHT22;15734;50.904;6.922;2023-08-12T08:57:49;21.70;99.90
28524;DHT22;15734;50.904;6.922;2023-08-12T09:00:16;21.70;99.90
28524;DHT22;15734;50.904;6.922;2023-08-12T09:02:46;21.60;99.90
28524;DHT22;15734;50.904;6.922;2023-08-12T09:05:14;21.70;99.90
28524;DHT22;15734;50.904;6.922;2023-08-12T09:07:41;21.80;99.90
28524;DHT22;15734;50.904;6.922;2023-08-12T09:10:07;21.90;99.90
28524;DHT22;15734;50.904;6.922;2023-08-12T09:12:34;22.10;99.90
28524;DHT22;15734;50.904;6.922;2023-08-12T09:14:59;22.30;99.90
28524;DHT22;15734;50.904;6.922;2023-08-12T09:17:25;22.30;99.90
28524;DHT22;15734;50.904;6.922;2023-08-12T09:19:50;22.30;99.90
28524;DHT22;15734;50.904;6.922;2023-08-12T09:22:18;22.40;99.90
28524;DHT22;15734;50.904;6.922;2023-08-12T09:24:43;22.50;99.90
28524;DHT22;15734;50.904;6.922;2023-08-12T09:27:09;22.60;99.90
28524;DHT22;15734;50.904;6.922;2023-08-12T09:29:35;22.70;99.90
28524;DHT22;15734;50.904;6.922;2023-08-12T09:32:18;22.70;99.90
28524;DHT22;15734;50.904;6.922;2023-08-12T09:34:52;22.80;99.90
28524;DHT22;15734;50.904;6.922;2023-08-12T09:37:18;22.90;99.90
28524;DHT22;15734;50.904;6.922;2023-08-12T09:39:44;23.10;99.90
28524;DHT22;15734;50.904;6.922;2023-08-12T09:42:11;23.10;99.90
28524;DHT22;15734;50.904;6.922;2023-08-12T09:44:37;23.40;99.90
28524;DHT22;15734;50.904;6.922;2023-08-12T09:47:03;23.60;99.90
28524;DHT22;15734;50.904;6.922;2023-08-12T09:49:29;23.70;99.90
28524;DHT22;15734;50.904;6.922;2023-08-12T09:51:55;23.70;99.90
28524;DHT22;15734;50.904;6.922;2023-08-12T09:54:21;23.90;99.90
28524;DHT22;15734;50.904;6.922;2023-08-12T09:56:48;24.00;99.90
28524;DHT22;15734;50.904;6.922;2023-08-12T09:59:19;23.70;99.90
28524;DHT22;15734;50.904;6.922;2023-08-12T10:01:49;23.60;99.90
28524;DHT22;15734;50.904;6.922;2023-08-12T10:04:18;23.40;99.90
28524;DHT22;15734;50.904;6.922;2023-08-12T10:06:44;23.20;99.90
28524;DHT22;15734;50.904;6.922;2023-08-12T10:09:10;23.10;99.90
28524;DHT22;15734;50.904;6.922;2023-08-12T10:11:37;23.00;99.90
28524;DHT22;15734;50.904;6.922;2023-08-12T10:14:06;22.90;99.90
28524;DHT22;15734;50.904;6.922;2023-08-12T10:16:34;22.80;99.90
28524;DHT22;15734;50.904;6.922;2023-08-12T10:19:01;22.60;99.90
28524;DHT22;15734;50.904;6.922;2023-08-12T10:21:27;22.70;99.90
28524;DHT22;15734;50.904;6.922;2023-08-12T10:23:54;22.70;99.90
28524;DHT22;15734;50.904;6.922;2023-08-12T10:26:23;22.90;99.90
28524;DHT22;15734;50.904;6.922;2023-08-12T10:28:49;23.10;99.90
28524;DHT22;15734;50.904;6.922;2023-08-12T10:31:15;23.40;99.90
28524;DHT22;15734;50.904;6.922;2023-08-12T10:33:41;23.40;99.90
28524;DHT22;15734;50.904;6.922;2023-08-12T10:36:08;23.50;99.90
28524;DHT22;15734;50.904;6.922;2023-08-12T10:38:34;23.50;99.90
28524;DHT22;15734;50.904;6.922;2023-08-12T10:41:25;23.60;99.90
28524;DHT22;15734;50.904;6.922;2023-08-12T10:44:01;23.50;99.90
28524;DHT22;15734;50.904;6.922;2023-08-12T10:46:34;23.40;99.90
28524;DHT22;15734;50.904;6.922;2023-08-12T10:49:08;23.30;99.90
28524;DHT22;15734;50.904;6.922;2023-08-12T10:51:52;23.10;99.90
28524;DHT22;15734;50.904;6.922;2023-08-12T10:54:26;23.10;99.90
28524;DHT22;15734;50.904;6.922;2023-08-12T10:57:06;23.10;99.90
28524;DHT22;15734;50.904;6.922;2023-08-12T11:02:30;23.10;99.90
28524;DHT22;15734;50.904;6.922;2023-08-12T11:07:45;23.10;99.90
28524;DHT22;15734;50.904;6.922;2023-08-12T11:10:20;23.10;99.90
28524;DHT22;15734;50.904;6.922;2023-08-12T11:15:42;23.00;99.90
28524;DHT22;15734;50.904;6.922;2023-08-12T11:18:10;23.00;99.90
28524;DHT22;15734;50.904;6.922;2023-08-12T11:20:37;22.90;99.90
28524;DHT22;15734;50.904;6.922;2023-08-12T11:23:03;23.00;99.90
28524;DHT22;15734;50.904;6.922;2023-08-12T11:25:30;23.00;99.90
28524;DHT22;15734;50.904;6.922;2023-08-12T11:27:58;23.00;99.90
28524;DHT22;15734;50.904;6.922;2023-08-12T11:30:25;23.00;99.90
28524;DHT22;15734;50.904;6.922;2023-08-12T11:32:52;23.00;99.90
28524;DHT22;15734;50.904;6.922;2023-08-12T11:35:20;23.00;99.90
28524;DHT22;15734;50.904;6.922;2023-08-12T11:37:47;23.10;99.90
28524;DHT22;15734;50.904;6.922;2023-08-12T11:40:16;23.10;99.90
28524;DHT22;15734;50.904;6.922;2023-08-12T11:42:44;23.10;99.90
28524;DHT22;15734;50.904;6.922;2023-08-12T11:45:10;23.10;99.90
28524;DHT22;15734;50.904;6.922;2023-08-12T11:47:40;23.20;99.90
28524;DHT22;15734;50.904;6.922;2023-08-12T11:50:07;23.30;99.90
28524;DHT22;15734;50.904;6.922;2023-08-12T11:52:34;23.40;99.90
28524;DHT22;15734;50.904;6.922;2023-08-12T11:55:01;23.50;99.90
28524;DHT22;15734;50.904;6.922;2023-08-12T11:57:27;23.60;99.90
28524;DHT22;15734;50.904;6.922;2023-08-12T12:00:03;23.60;99.90
28524;DHT22;15734;50.904;6.922;2023-08-12T12:02:37;23.70;99.90
28524;DHT22;15734;50.904;6.922;2023-08-12T12:05:08;23.60;99.90
28524;DHT22;15734;50.904;6.922;2023-08-12T12:07:34;23.70;99.90
28524;DHT22;15734;50.904;6.922;2023-08-12T12:09:59;23.80;99.90
28524;DHT22;15734;50.904;6.922;2023-08-12T12:12:25;23.90;99.90
28524;DHT22;15734;50.904;6.922;2023-08-12T12:14:52;23.90;99.90
28524;DHT22;15734;50.904;6.922;2023-08-12T12:17:20;24.10;99.90
28524;DHT22;15734;50.904;6.922;2023-08-12T12:19:46;24.10;99.90
28524;DHT22;15734;50.904;6.922;2023-08-12T12:22:12;24.10;99.90
28524;DHT22;15734;50.904;6.922;2023-08-12T12:24:45;24.20;99.90
28524;DHT22;15734;50.904;6.922;2023-08-12T12:27:14;24.30;99.90
28524;DHT22;15734;50.904;6.922;2023-08-12T12:29:40;24.30;99.90
28524;DHT22;15734;50.904;6.922;2023-08-12T12:32:06;24.20;99.90
28524;DHT22;15734;50.904;6.922;2023-08-12T12:34:31;24.10;99.90
28524;DHT22;15734;50.904;6.922;2023-08-12T12:36:57;24.10;99.90
28524;DHT22;15734;50.904;6.922;2023-08-12T12:39:23;24.20;99.90
28524;DHT22;15734;50.904;6.922;2023-08-12T12:41:49;24.30;99.90
28524;DHT22;15734;50.904;6.922;2023-08-12T12:44:16;24.30;99.90
28524;DHT22;15734;50.904;6.922;2023-08-12T12:46:41;24.40;99.90
28524;DHT22;15734;50.904;6.922;2023-08-12T12:49:07;24.40;99.90
28524;DHT22;15734;50.904;6.922;2023-08-12T12:51:33;24.40;99.90
28524;DHT22;15734;50.904;6.922;2023-08-12T12:53:58;24.30;99.90
28524;DHT22;15734;50.904;6.922;2023-08-12T12:56:24;24.50;99.90
28524;DHT22;15734;50.904;6.922;2023-08-12T12:58:50;24.80;99.90
28524;DHT22;15734;50.904;6.922;2023-08-12T13:01:16;25.10;99.90
28524;DHT22;15734;50.904;6.922;2023-08-12T13:03:41;25.40;99.90
28524;DHT22;15734;50.904;6.922;2023-08-12T13:06:07;25.50;99.90
28524;DHT22;15734;50.904;6.922;2023-08-12T13:08:33;25.60;99.90
28524;DHT22;15734;50.904;6.922;2023-08-12T13:10:59;25.60;99.90
28524;DHT22;15734;50.904;6.922;2023-08-12T13:13:24;26.10;99.90
28524;DHT22;15734;50.904;6.922;2023-08-12T13:15:52;26.20;99.90
28524;DHT22;15734;50.904;6.922;2023-08-12T13:18:17;25.80;99.90
28524;DHT22;15734;50.904;6.922;2023-08-12T13:20:43;25.20;99.90
28524;DHT22;15734;50.904;6.922;2023-08-12T13:23:09;25.20;99.90
28524;DHT22;15734;50.904;6.922;2023-08-12T13:25:35;25.20;99.90
28524;DHT22;15734;50.904;6.922;2023-08-12T13:28:02;24.90;99.90
28524;DHT22;15734;50.904;6.922;2023-08-12T13:30:28;24.80;99.90
28524;DHT22;15734;50.904;6.922;2023-08-12T13:32:54;25.20;99.90
28524;DHT22;15734;50.904;6.922;2023-08-12T13:35:21;25.40;99.90
28524;DHT22;15734;50.904;6.922;2023-08-12T13:37:47;25.70;99.90
28524;DHT22;15734;50.904;6.922;2023-08-12T13:40:12;25.70;99.90
28524;DHT22;15734;50.904;6.922;2023-08-12T13:42:41;26.00;99.90
28524;DHT22;15734;50.904;6.922;2023-08-12T13:45:07;25.60;99.90
28524;DHT22;15734;50.904;6.922;2023-08-12T13:47:34;25.30;99.90
28524;DHT22;15734;50.904;6.922;2023-08-12T13:50:00;25.10;99.90
28524;DHT22;15734;50.904;6.922;2023-08-12T13:52:25;25.20;99.90
28524;DHT22;15734;50.904;6.922;2023-08-12T13:54:51;25.30;99.90
28524;DHT22;15734;50.904;6.922;2023-08-12T13:57:16;25.30;99.90
28524;DHT22;15734;50.904;6.922;2023-08-12T13:59:42;25.50;99.90
28524;DHT22;15734;50.904;6.922;2023-08-12T14:02:12;25.60;99.90
28524;DHT22;15734;50.904;6.922;2023-08-12T14:04:37;25.70;99.90
28524;DHT22;15734;50.904;6.922;2023-08-12T14:07:06;25.70;99.90
28524;DHT22;15734;50.904;6.922;2023-08-12T14:09:31;25.80;99.90
28524;DHT22;15734;50.904;6.922;2023-08-12T14:11:57;25.60;99.90
28524;DHT22;15734;50.904;6.922;2023-08-12T14:14:24;25.40;99.90
28524;DHT22;15734;50.904;6.922;2023-08-12T14:16:53;25.70;99.90
28524;DHT22;15734;50.904;6.922;2023-08-12T14:19:18;26.20;99.90
28524;DHT22;15734;50.904;6.922;2023-08-12T14:21:44;26.20;99.90
28524;DHT22;15734;50.904;6.922;2023-08-12T14:24:10;26.40;99.90
28524;DHT22;15734;50.904;6.922;2023-08-12T14:26:35;26.80;99.90
28524;DHT22;15734;50.904;6.922;2023-08-12T14:29:01;27.00;99.90
28524;DHT22;15734;50.904;6.922;2023-08-12T14:31:26;27.00;99.90
28524;DHT22;15734;50.904;6.922;2023-08-12T14:33:52;26.80;99.90
28524;DHT22;15734;50.904;6.922;2023-08-12T14:36:17;26.80;99.90
28524;DHT22;15734;50.904;6.922;2023-08-12T14:38:43;26.80;99.90
28524;DHT22;15734;50.904;6.922;2023-08-12T14:41:08;26.80;99.90
28524;DHT22;15734;50.904;6.922;2023-08-12T14:43:34;26.30;99.90
28524;DHT22;15734;50.904;6.922;2023-08-12T14:45:59;25.90;99.90
28524;DHT22;15734;50.904;6.922;2023-08-12T14:48:25;25.90;99.90
28524;DHT22;15734;50.904;6.922;2023-08-12T14:50:50;26.20;99.90
28524;DHT22;15734;50.904;6.922;2023-08-12T14:53:16;26.50;99.90
28524;DHT22;15734;50.904;6.922;2023-08-12T14:55:41;26.70;99.90
28524;DHT22;15734;50.904;6.922;2023-08-12T14:58:07;26.70;99.90
28524;DHT22;15734;50.904;6.922;2023-08-12T15:00:33;26.40;99.90
28524;DHT22;15734;50.904;6.922;2023-08-12T15:02:59;26.40;99.90
28524;DHT22;15734;50.904;6.922;2023-08-12T15:05:24;26.40;99.90
28524;DHT22;15734;50.904;6.922;2023-08-12T15:07:50;26.30;99.90
28524;DHT22;15734;50.904;6.922;2023-08-12T15:10:16;26.20;99.90
28524;DHT22;15734;50.904;6.922;2023-08-12T15:12:41;26.10;99.90
28524;DHT22;15734;50.904;6.922;2023-08-12T15:15:07;26.30;99.90
28524;DHT22;15734;50.904;6.922;2023-08-12T15:17:32;26.40;99.90
28524;DHT22;15734;50.904;6.922;2023-08-12T15:19:58;26.40;99.90
28524;DHT22;15734;50.904;6.922;2023-08-12T15:22:23;26.60;99.90
28524;DHT22;15734;50.904;6.922;2023-08-12T15:24:49;26.50;99.90
28524;DHT22;15734;50.904;6.922;2023-08-12T15:27:15;26.50;99.90
28524;DHT22;15734;50.904;6.922;2023-08-12T15:29:40;26.70;99.90
28524;DHT22;15734;50.904;6.922;2023-08-12T15:32:06;26.90;99.90
28524;DHT22;15734;50.904;6.922;2023-08-12T15:34:31;27.00;99.90
28524;DHT22;15734;50.904;6.922;2023-08-12T15:36:57;27.00;99.90